Архив погоды в Погибях

Метеограмма Погиби
Понедельник, 24 Июня
Время местн. Темп Ветер Видим Явления Облачность нижн/средн/верх Атм. давл. Влжн Точка росы ВНГО R Сост. почвы Tg s
Напр Скр Прв ур.ст ур.м изм
22:00 +11.3° В 2 2 4 км дымка облачно 759 760 0 97% +10.9° 600 м - - - -
19:00 +13.2° Ю 2 2 более 50 км - облачно 759 760 -0.5 97% +12.8° 1 км 0 - - -
16:00 +14° Ю 2 2 более 50 км - облачно 760 760 0 80% +10.6° 1 км - - - -
13:00 +13.6° З 2 2 более 50 км - облачно 760 760 0 84% +11° 1 км - - - -
10:00 +13.4° Ю-В 2 2 50 км - облачно 760 760 -0.3 84% +10.7° 1 км - - - -
07:00 +10.4° С 2 2 более 50 км - облачно 760 761 0 94% +9.4° 1 км 0 Влажная (без луж) +9° -
04:00 +10° С 2 2 4 км дымка облачно 760 761 0 95% +9.2° 600 м - - - -
01:00 +10.8° С 2 2 4 км дымка облачно 760 761 0 95% +10° 600 м - - - -
Воскресенье, 23 Июня
Время местн. Темп Ветер Видим Явления Облачность нижн/средн/верх Атм. давл. Влжн Точка росы ВНГО R Сост. почвы Tg s
Напр Скр Прв ур.ст ур.м изм
22:00 +12.6° С-З 2 2 4 км дымка облачно 760 761 +0.3 95% +11.9° 600 м - - - -
19:00 +13° С-З 2 2 50 км - облачно 760 760 +0.5 93% +11.9° 1 км 0 - - -
16:00 +13.2° С-З 2 2 50 км - облачно 759 760 -0.6 88% +11.3° 1 км - - - -
13:00 +14° С 2 2 50 км - облачно 760 760 0 87% +11.8° 1 км - - - -
10:00 +13° Ю 2 2 50 км небо без изменений {ливневые осадки} облачно 760 760 +0.3 86% +10.7° 1 км - - - -
07:00 +11.6° Ю 2 2 20 км небо без изменений {ливневые осадки} облачно 759 760 +0.1 90% +10° 1 км 3 Влажная (без луж) +9° -
04:00 +10° Ю 2 2 10 км слабый ливневый дождь облачно 759 760 +0.2 97% +9.6° 1 км - - - -
01:00 +10.4° Ю 2 6 более 50 км - преимущественно облачно 759 760 +0.3 89% +8.6° 1 км - - - -
Суббота, 22 Июня
Время местн. Темп Ветер Видим Явления Облачность нижн/средн/верх Атм. давл. Влжн Точка росы ВНГО R Сост. почвы Tg s
Напр Скр Прв ур.ст ур.м изм
22:00 +11.5° Ю 4 6 50 км - облачно с прояснениями 759 759 +0.4 88% +9.5° 1 км - - - -
19:00 +13.8° Ю 4 6 50 км - облачно с прояснениями 759 759 -0.2 88% +11.8° - 0 - - -
16:00 +16.6° Ю 6 10 более 50 км - облачно с прояснениями 759 759 -0.5 73% +11.7° 1 км - - - -
13:00 +16.3° Ю 6 8 50 км - облачно с прояснениями 759 760 -0.8 75% +11.9° 1 км - - - -
10:00 +12.7° Ю 2 4 более 50 км - облачно с прояснениями 760 761 +0.3 81% +9.6° 1 км - - - -
07:00 +10.8° Ю 2 2 50 км - облачно с прояснениями 760 760 0 86% +8.6° 1 км 0 Сухая (без трещин) - -
04:00 +11° Ю 2 4 более 50 км - облачно с прояснениями 760 760 0 89% +9.2° 1 км - - - -
01:00 +11.6° Ю-В 2 2 более 50 км - преимущественно облачно 760 760 +0.3 83% +8.8° 1 км - - - -
Пятница, 21 Июня
Время местн. Темп Ветер Видим Явления Облачность нижн/средн/верх Атм. давл. Влжн Точка росы ВНГО R Сост. почвы Tg s
Напр Скр Прв ур.ст ур.м изм
22:00 +11.8° С-В 2 2 50 км - облачно с прояснениями 759 760 +0.2 85% +9.4° 1 км - - - -
19:00 +13.8° Ю 2 4 более 50 км - облачно с прояснениями 759 760 -0.5 71% +8.7° 1 км 0 - - -